sensor_id;sensor_type;location;lat;lon;timestamp;temperature;humidity
16958;DHT22;8595;52.542;11.974;2023-02-21T00:00:57;9.40;99.90
16958;DHT22;8595;52.542;11.974;2023-02-21T00:03:41;9.40;99.90
16958;DHT22;8595;52.542;11.974;2023-02-21T00:06:25;9.40;99.90
16958;DHT22;8595;52.542;11.974;2023-02-21T00:09:10;9.40;99.90
16958;DHT22;8595;52.542;11.974;2023-02-21T00:11:55;9.30;99.90
16958;DHT22;8595;52.542;11.974;2023-02-21T00:14:40;9.30;99.90
16958;DHT22;8595;52.542;11.974;2023-02-21T00:17:26;9.40;99.90
16958;DHT22;8595;52.542;11.974;2023-02-21T00:20:11;9.30;99.90
16958;DHT22;8595;52.542;11.974;2023-02-21T00:22:55;9.40;99.90
16958;DHT22;8595;52.542;11.974;2023-02-21T00:25:39;9.40;99.90
16958;DHT22;8595;52.542;11.974;2023-02-21T00:28:23;9.40;99.90
16958;DHT22;8595;52.542;11.974;2023-02-21T00:31:09;9.40;99.90
16958;DHT22;8595;52.542;11.974;2023-02-21T00:33:55;9.30;99.90
16958;DHT22;8595;52.542;11.974;2023-02-21T00:36:40;9.20;99.90
16958;DHT22;8595;52.542;11.974;2023-02-21T00:39:26;9.20;99.90
16958;DHT22;8595;52.542;11.974;2023-02-21T00:42:11;9.30;99.90
16958;DHT22;8595;52.542;11.974;2023-02-21T00:44:55;9.30;99.90
16958;DHT22;8595;52.542;11.974;2023-02-21T00:47:41;9.30;99.90
16958;DHT22;8595;52.542;11.974;2023-02-21T00:50:25;9.30;99.90
16958;DHT22;8595;52.542;11.974;2023-02-21T00:53:17;9.40;99.90
16958;DHT22;8595;52.542;11.974;2023-02-21T00:56:03;9.40;99.90
16958;DHT22;8595;52.542;11.974;2023-02-21T00:58:47;9.40;99.90
16958;DHT22;8595;52.542;11.974;2023-02-21T01:01:32;9.30;99.90
16958;DHT22;8595;52.542;11.974;2023-02-21T01:04:17;9.40;99.90
16958;DHT22;8595;52.542;11.974;2023-02-21T01:07:01;9.40;99.90
16958;DHT22;8595;52.542;11.974;2023-02-21T01:09:46;9.40;99.90
16958;DHT22;8595;52.542;11.974;2023-02-21T01:12:30;9.40;99.90
16958;DHT22;8595;52.542;11.974;2023-02-21T01:15:14;9.40;99.90
16958;DHT22;8595;52.542;11.974;2023-02-21T01:17:59;9.50;99.90
16958;DHT22;8595;52.542;11.974;2023-02-21T01:20:44;9.40;99.90
16958;DHT22;8595;52.542;11.974;2023-02-21T01:23:28;9.40;99.90
16958;DHT22;8595;52.542;11.974;2023-02-21T01:26:13;9.40;99.90
16958;DHT22;8595;52.542;11.974;2023-02-21T01:28:57;9.50;99.90
16958;DHT22;8595;52.542;11.974;2023-02-21T01:31:41;9.50;99.90
16958;DHT22;8595;52.542;11.974;2023-02-21T01:34:25;9.50;99.90
16958;DHT22;8595;52.542;11.974;2023-02-21T01:37:12;9.50;99.90
16958;DHT22;8595;52.542;11.974;2023-02-21T01:39:56;9.50;99.90
16958;DHT22;8595;52.542;11.974;2023-02-21T01:42:41;9.50;99.90
16958;DHT22;8595;52.542;11.974;2023-02-21T01:45:44;9.50;99.90
16958;DHT22;8595;52.542;11.974;2023-02-21T01:48:30;9.50;99.90
16958;DHT22;8595;52.542;11.974;2023-02-21T01:51:22;9.50;99.90
16958;DHT22;8595;52.542;11.974;2023-02-21T01:54:08;9.60;99.90
16958;DHT22;8595;52.542;11.974;2023-02-21T01:56:55;9.60;99.90
16958;DHT22;8595;52.542;11.974;2023-02-21T01:59:41;9.60;99.90
16958;DHT22;8595;52.542;11.974;2023-02-21T02:02:32;9.60;99.90
16958;DHT22;8595;52.542;11.974;2023-02-21T02:05:18;9.60;99.90
16958;DHT22;8595;52.542;11.974;2023-02-21T02:08:03;9.60;99.90
16958;DHT22;8595;52.542;11.974;2023-02-21T02:10:56;9.60;99.90
16958;DHT22;8595;52.542;11.974;2023-02-21T02:14:02;9.60;99.90
16958;DHT22;8595;52.542;11.974;2023-02-21T02:16:38;9.70;99.90
16958;DHT22;8595;52.542;11.974;2023-02-21T02:19:37;9.60;99.90
16958;DHT22;8595;52.542;11.974;2023-02-21T02:22:24;9.70;99.90
16958;DHT22;8595;52.542;11.974;2023-02-21T02:25:23;9.70;99.90
16958;DHT22;8595;52.542;11.974;2023-02-21T02:28:09;9.70;99.90
16958;DHT22;8595;52.542;11.974;2023-02-21T02:31:14;9.70;99.90
16958;DHT22;8595;52.542;11.974;2023-02-21T02:36:50;9.70;99.90
16958;DHT22;8595;52.542;11.974;2023-02-21T02:39:23;9.70;99.90
16958;DHT22;8595;52.542;11.974;2023-02-21T02:42:02;9.70;99.90
16958;DHT22;8595;52.542;11.974;2023-02-21T02:44:37;9.70;99.90
16958;DHT22;8595;52.542;11.974;2023-02-21T02:47:09;9.70;99.90
16958;DHT22;8595;52.542;11.974;2023-02-21T02:49:40;9.70;99.90
16958;DHT22;8595;52.542;11.974;2023-02-21T02:52:09;9.70;99.90
16958;DHT22;8595;52.542;11.974;2023-02-21T02:54:36;9.80;99.90
16958;DHT22;8595;52.542;11.974;2023-02-21T02:57:04;9.80;99.90
16958;DHT22;8595;52.542;11.974;2023-02-21T02:59:37;9.70;99.90
16958;DHT22;8595;52.542;11.974;2023-02-21T03:02:33;9.70;99.90
16958;DHT22;8595;52.542;11.974;2023-02-21T03:05:12;9.80;99.90
16958;DHT22;8595;52.542;11.974;2023-02-21T03:07:48;9.70;99.90
16958;DHT22;8595;52.542;11.974;2023-02-21T03:10:23;9.70;99.90
16958;DHT22;8595;52.542;11.974;2023-02-21T03:13:00;9.70;99.90
16958;DHT22;8595;52.542;11.974;2023-02-21T03:15:32;9.80;99.90
16958;DHT22;8595;52.542;11.974;2023-02-21T03:18:04;9.80;99.90
16958;DHT22;8595;52.542;11.974;2023-02-21T03:20:33;9.80;99.90
16958;DHT22;8595;52.542;11.974;2023-02-21T03:23:03;9.80;99.90
16958;DHT22;8595;52.542;11.974;2023-02-21T03:25:31;9.80;99.90
16958;DHT22;8595;52.542;11.974;2023-02-21T03:28:00;9.80;99.90
16958;DHT22;8595;52.542;11.974;2023-02-21T03:30:28;9.80;99.90
16958;DHT22;8595;52.542;11.974;2023-02-21T03:32:55;9.80;99.90
16958;DHT22;8595;52.542;11.974;2023-02-21T03:35:23;9.80;99.90
16958;DHT22;8595;52.542;11.974;2023-02-21T03:37:54;9.80;99.90
16958;DHT22;8595;52.542;11.974;2023-02-21T03:40:24;9.80;99.90
16958;DHT22;8595;52.542;11.974;2023-02-21T03:42:52;9.80;99.90
16958;DHT22;8595;52.542;11.974;2023-02-21T03:45:20;9.80;99.90
16958;DHT22;8595;52.542;11.974;2023-02-21T03:47:47;9.80;99.90
16958;DHT22;8595;52.542;11.974;2023-02-21T03:50:14;9.70;99.90
16958;DHT22;8595;52.542;11.974;2023-02-21T03:52:40;9.70;99.90
16958;DHT22;8595;52.542;11.974;2023-02-21T03:55:08;9.70;99.90
16958;DHT22;8595;52.542;11.974;2023-02-21T03:57:37;9.70;99.90
16958;DHT22;8595;52.542;11.974;2023-02-21T04:00:04;9.70;99.90
16958;DHT22;8595;52.542;11.974;2023-02-21T04:02:31;9.70;99.90
16958;DHT22;8595;52.542;11.974;2023-02-21T04:04:58;9.70;99.90
16958;DHT22;8595;52.542;11.974;2023-02-21T04:07:25;9.70;99.90
16958;DHT22;8595;52.542;11.974;2023-02-21T04:09:52;9.70;99.90
16958;DHT22;8595;52.542;11.974;2023-02-21T04:12:18;9.70;99.90
16958;DHT22;8595;52.542;11.974;2023-02-21T04:14:46;9.70;99.90
16958;DHT22;8595;52.542;11.974;2023-02-21T04:17:13;9.80;99.90
16958;DHT22;8595;52.542;11.974;2023-02-21T04:19:40;9.70;99.90
16958;DHT22;8595;52.542;11.974;2023-02-21T04:22:07;9.70;99.90
16958;DHT22;8595;52.542;11.974;2023-02-21T04:24:34;9.80;99.90
16958;DHT22;8595;52.542;11.974;2023-02-21T04:27:01;9.80;99.90
16958;DHT22;8595;52.542;11.974;2023-02-21T04:29:27;9.80;99.90
16958;DHT22;8595;52.542;11.974;2023-02-21T04:31:55;9.80;99.90
16958;DHT22;8595;52.542;11.974;2023-02-21T04:34:22;9.80;99.90
16958;DHT22;8595;52.542;11.974;2023-02-21T04:36:49;9.80;99.90
16958;DHT22;8595;52.542;11.974;2023-02-21T04:39:19;9.80;99.90
16958;DHT22;8595;52.542;11.974;2023-02-21T04:41:48;9.80;99.90
16958;DHT22;8595;52.542;11.974;2023-02-21T04:44:14;9.80;99.90
16958;DHT22;8595;52.542;11.974;2023-02-21T04:46:43;9.90;99.90
16958;DHT22;8595;52.542;11.974;2023-02-21T04:49:12;9.80;99.90
16958;DHT22;8595;52.542;11.974;2023-02-21T04:51:39;9.80;99.90
16958;DHT22;8595;52.542;11.974;2023-02-21T04:54:06;9.80;99.90
16958;DHT22;8595;52.542;11.974;2023-02-21T04:56:33;9.80;99.90
16958;DHT22;8595;52.542;11.974;2023-02-21T04:58:59;9.70;99.90
16958;DHT22;8595;52.542;11.974;2023-02-21T05:01:27;9.80;99.90
16958;DHT22;8595;52.542;11.974;2023-02-21T05:03:55;9.80;99.90
16958;DHT22;8595;52.542;11.974;2023-02-21T05:06:25;9.80;99.90
16958;DHT22;8595;52.542;11.974;2023-02-21T05:08:52;9.90;99.90
16958;DHT22;8595;52.542;11.974;2023-02-21T05:11:20;9.80;99.90
16958;DHT22;8595;52.542;11.974;2023-02-21T05:13:48;9.80;99.90
16958;DHT22;8595;52.542;11.974;2023-02-21T05:16:18;9.70;99.90
16958;DHT22;8595;52.542;11.974;2023-02-21T05:18:47;9.80;99.90
16958;DHT22;8595;52.542;11.974;2023-02-21T05:21:14;9.80;99.90
16958;DHT22;8595;52.542;11.974;2023-02-21T05:23:42;9.80;99.90
16958;DHT22;8595;52.542;11.974;2023-02-21T05:26:21;9.80;99.90
16958;DHT22;8595;52.542;11.974;2023-02-21T05:28:49;9.90;99.90
16958;DHT22;8595;52.542;11.974;2023-02-21T05:31:15;9.80;99.90
16958;DHT22;8595;52.542;11.974;2023-02-21T05:33:42;9.80;99.90
16958;DHT22;8595;52.542;11.974;2023-02-21T05:36:09;9.80;99.90
16958;DHT22;8595;52.542;11.974;2023-02-21T05:38:44;9.80;99.90
16958;DHT22;8595;52.542;11.974;2023-02-21T05:41:11;9.80;99.90
16958;DHT22;8595;52.542;11.974;2023-02-21T05:43:38;9.80;99.90
16958;DHT22;8595;52.542;11.974;2023-02-21T05:46:06;9.80;99.90
16958;DHT22;8595;52.542;11.974;2023-02-21T05:48:32;9.90;99.90
16958;DHT22;8595;52.542;11.974;2023-02-21T05:50:59;9.90;99.90
16958;DHT22;8595;52.542;11.974;2023-02-21T05:53:26;9.90;99.90
16958;DHT22;8595;52.542;11.974;2023-02-21T05:55:56;9.90;99.90
16958;DHT22;8595;52.542;11.974;2023-02-21T05:58:24;9.90;99.90
16958;DHT22;8595;52.542;11.974;2023-02-21T06:00:51;9.90;99.90
16958;DHT22;8595;52.542;11.974;2023-02-21T06:03:17;9.80;99.90
16958;DHT22;8595;52.542;11.974;2023-02-21T06:05:44;9.90;99.90
16958;DHT22;8595;52.542;11.974;2023-02-21T06:08:12;9.90;99.90
16958;DHT22;8595;52.542;11.974;2023-02-21T06:10:38;9.90;99.90
16958;DHT22;8595;52.542;11.974;2023-02-21T06:13:07;9.90;99.90
16958;DHT22;8595;52.542;11.974;2023-02-21T06:15:33;9.90;99.90
16958;DHT22;8595;52.542;11.974;2023-02-21T06:18:00;9.90;99.90
16958;DHT22;8595;52.542;11.974;2023-02-21T06:20:27;9.90;99.90
16958;DHT22;8595;52.542;11.974;2023-02-21T06:22:54;9.90;99.90
16958;DHT22;8595;52.542;11.974;2023-02-21T06:25:21;9.80;99.90
16958;DHT22;8595;52.542;11.974;2023-02-21T06:27:48;9.90;99.90
16958;DHT22;8595;52.542;11.974;2023-02-21T06:30:16;9.80;99.90
16958;DHT22;8595;52.542;11.974;2023-02-21T06:32:43;9.80;99.90
16958;DHT22;8595;52.542;11.974;2023-02-21T06:35:10;9.80;99.90
16958;DHT22;8595;52.542;11.974;2023-02-21T06:37:38;9.70;99.90
16958;DHT22;8595;52.542;11.974;2023-02-21T06:40:06;9.80;99.90
16958;DHT22;8595;52.542;11.974;2023-02-21T06:42:32;9.70;99.90
16958;DHT22;8595;52.542;11.974;2023-02-21T06:44:59;9.60;99.90
16958;DHT22;8595;52.542;11.974;2023-02-21T06:47:28;9.60;99.90
16958;DHT22;8595;52.542;11.974;2023-02-21T06:49:55;9.50;99.90
16958;DHT22;8595;52.542;11.974;2023-02-21T06:52:22;9.60;99.90
16958;DHT22;8595;52.542;11.974;2023-02-21T06:54:50;9.50;99.90
16958;DHT22;8595;52.542;11.974;2023-02-21T06:57:16;9.60;99.90
16958;DHT22;8595;52.542;11.974;2023-02-21T06:59:45;9.60;99.90
16958;DHT22;8595;52.542;11.974;2023-02-21T07:02:16;9.60;99.90
16958;DHT22;8595;52.542;11.974;2023-02-21T07:04:45;9.60;99.90
16958;DHT22;8595;52.542;11.974;2023-02-21T07:07:12;9.60;99.90
16958;DHT22;8595;52.542;11.974;2023-02-21T07:09:39;9.50;99.90
16958;DHT22;8595;52.542;11.974;2023-02-21T07:12:06;9.40;99.90
16958;DHT22;8595;52.542;11.974;2023-02-21T07:14:33;9.40;99.90
16958;DHT22;8595;52.542;11.974;2023-02-21T07:16:59;9.40;99.90
16958;DHT22;8595;52.542;11.974;2023-02-21T07:19:26;9.40;99.90
16958;DHT22;8595;52.542;11.974;2023-02-21T07:21:54;9.40;99.90
16958;DHT22;8595;52.542;11.974;2023-02-21T07:24:21;9.40;99.90
16958;DHT22;8595;52.542;11.974;2023-02-21T07:26:48;9.50;99.90
16958;DHT22;8595;52.542;11.974;2023-02-21T07:29:15;9.50;99.90
16958;DHT22;8595;52.542;11.974;2023-02-21T07:31:42;9.50;99.90
16958;DHT22;8595;52.542;11.974;2023-02-21T07:34:09;9.50;99.90
16958;DHT22;8595;52.542;11.974;2023-02-21T07:36:37;9.50;99.90
16958;DHT22;8595;52.542;11.974;2023-02-21T07:39:05;9.60;99.90
16958;DHT22;8595;52.542;11.974;2023-02-21T07:41:32;9.60;99.90
16958;DHT22;8595;52.542;11.974;2023-02-21T07:44:00;9.50;99.90
16958;DHT22;8595;52.542;11.974;2023-02-21T07:46:27;9.60;99.90
16958;DHT22;8595;52.542;11.974;2023-02-21T07:48:54;9.60;99.90
16958;DHT22;8595;52.542;11.974;2023-02-21T07:51:21;9.60;99.90
16958;DHT22;8595;52.542;11.974;2023-02-21T07:53:54;9.70;99.90
16958;DHT22;8595;52.542;11.974;2023-02-21T07:56:22;9.70;99.90
16958;DHT22;8595;52.542;11.974;2023-02-21T07:58:49;9.70;99.90
16958;DHT22;8595;52.542;11.974;2023-02-21T08:01:16;9.70;99.90
16958;DHT22;8595;52.542;11.974;2023-02-21T08:03:43;9.70;99.90
16958;DHT22;8595;52.542;11.974;2023-02-21T08:06:10;9.60;99.90
16958;DHT22;8595;52.542;11.974;2023-02-21T08:08:37;9.70;99.90
16958;DHT22;8595;52.542;11.974;2023-02-21T08:11:04;9.60;99.90
16958;DHT22;8595;52.542;11.974;2023-02-21T08:13:32;9.60;99.90
16958;DHT22;8595;52.542;11.974;2023-02-21T08:15:59;9.70;99.90
16958;DHT22;8595;52.542;11.974;2023-02-21T08:18:25;9.80;99.90
16958;DHT22;8595;52.542;11.974;2023-02-21T08:20:53;9.80;99.90
16958;DHT22;8595;52.542;11.974;2023-02-21T08:23:21;9.80;99.90
16958;DHT22;8595;52.542;11.974;2023-02-21T08:25:48;9.80;99.90
16958;DHT22;8595;52.542;11.974;2023-02-21T08:28:16;9.80;99.90
16958;DHT22;8595;52.542;11.974;2023-02-21T08:30:44;9.90;99.90
16958;DHT22;8595;52.542;11.974;2023-02-21T08:33:12;9.90;99.90
16958;DHT22;8595;52.542;11.974;2023-02-21T08:35:39;9.90;99.90
16958;DHT22;8595;52.542;11.974;2023-02-21T08:38:05;9.90;99.90
16958;DHT22;8595;52.542;11.974;2023-02-21T08:40:32;9.80;99.90
16958;DHT22;8595;52.542;11.974;2023-02-21T08:42:59;9.90;99.90
16958;DHT22;8595;52.542;11.974;2023-02-21T08:45:27;9.90;99.90
16958;DHT22;8595;52.542;11.974;2023-02-21T08:47:56;9.90;99.90
16958;DHT22;8595;52.542;11.974;2023-02-21T08:50:25;10.00;99.90
16958;DHT22;8595;52.542;11.974;2023-02-21T08:52:52;10.10;99.90
16958;DHT22;8595;52.542;11.974;2023-02-21T08:55:19;10.00;99.90
16958;DHT22;8595;52.542;11.974;2023-02-21T08:57:47;10.00;99.90
16958;DHT22;8595;52.542;11.974;2023-02-21T09:00:15;10.00;99.90
16958;DHT22;8595;52.542;11.974;2023-02-21T09:02:42;10.00;99.90
16958;DHT22;8595;52.542;11.974;2023-02-21T09:05:13;10.00;99.90
16958;DHT22;8595;52.542;11.974;2023-02-21T09:07:40;10.00;99.90
16958;DHT22;8595;52.542;11.974;2023-02-21T09:10:09;10.00;99.90
16958;DHT22;8595;52.542;11.974;2023-02-21T09:12:35;10.00;99.90
16958;DHT22;8595;52.542;11.974;2023-02-21T09:15:03;10.10;99.90
16958;DHT22;8595;52.542;11.974;2023-02-21T09:17:30;10.00;99.90
16958;DHT22;8595;52.542;11.974;2023-02-21T09:19:58;10.00;99.90
16958;DHT22;8595;52.542;11.974;2023-02-21T09:22:27;10.00;99.90
16958;DHT22;8595;52.542;11.974;2023-02-21T09:24:56;10.10;99.90
16958;DHT22;8595;52.542;11.974;2023-02-21T09:27:23;10.10;99.90
16958;DHT22;8595;52.542;11.974;2023-02-21T09:30:02;10.20;99.90
16958;DHT22;8595;52.542;11.974;2023-02-21T09:32:29;10.20;99.90
16958;DHT22;8595;52.542;11.974;2023-02-21T09:34:56;10.20;99.90
16958;DHT22;8595;52.542;11.974;2023-02-21T09:37:23;10.30;99.90
16958;DHT22;8595;52.542;11.974;2023-02-21T09:39:51;10.20;99.90
16958;DHT22;8595;52.542;11.974;2023-02-21T09:42:18;10.30;99.90
16958;DHT22;8595;52.542;11.974;2023-02-21T09:44:47;10.20;99.90
16958;DHT22;8595;52.542;11.974;2023-02-21T09:47:23;10.20;99.90
16958;DHT22;8595;52.542;11.974;2023-02-21T09:49:58;10.20;99.90
16958;DHT22;8595;52.542;11.974;2023-02-21T09:52:30;10.10;99.90
16958;DHT22;8595;52.542;11.974;2023-02-21T09:55:02;10.20;99.90
16958;DHT22;8595;52.542;11.974;2023-02-21T09:57:30;9.80;99.90
16958;DHT22;8595;52.542;11.974;2023-02-21T09:59:57;9.70;99.90
16958;DHT22;8595;52.542;11.974;2023-02-21T10:02:37;9.70;99.90
16958;DHT22;8595;52.542;11.974;2023-02-21T10:05:14;9.50;99.90
16958;DHT22;8595;52.542;11.974;2023-02-21T10:07:48;9.30;99.90
16958;DHT22;8595;52.542;11.974;2023-02-21T10:10:27;9.30;99.90
16958;DHT22;8595;52.542;11.974;2023-02-21T10:13:02;9.30;99.90
16958;DHT22;8595;52.542;11.974;2023-02-21T10:15:43;9.30;99.90
16958;DHT22;8595;52.542;11.974;2023-02-21T10:18:27;9.20;99.90
16958;DHT22;8595;52.542;11.974;2023-02-21T10:20:59;9.10;99.90
16958;DHT22;8595;52.542;11.974;2023-02-21T10:23:34;9.10;99.90
16958;DHT22;8595;52.542;11.974;2023-02-21T10:26:05;9.00;99.90
16958;DHT22;8595;52.542;11.974;2023-02-21T10:28:34;9.00;99.90
16958;DHT22;8595;52.542;11.974;2023-02-21T10:31:06;8.90;99.90
16958;DHT22;8595;52.542;11.974;2023-02-21T10:33:36;8.90;99.90
16958;DHT22;8595;52.542;11.974;2023-02-21T10:36:12;9.00;99.90
16958;DHT22;8595;52.542;11.974;2023-02-21T10:38:52;9.10;99.90
16958;DHT22;8595;52.542;11.974;2023-02-21T10:41:22;9.10;99.90
16958;DHT22;8595;52.542;11.974;2023-02-21T10:43:52;9.20;99.90
16958;DHT22;8595;52.542;11.974;2023-02-21T10:46:27;9.40;99.90
16958;DHT22;8595;52.542;11.974;2023-02-21T10:49:15;9.50;99.90
16958;DHT22;8595;52.542;11.974;2023-02-21T10:51:44;9.70;99.90
16958;DHT22;8595;52.542;11.974;2023-02-21T10:54:18;9.80;99.90
16958;DHT22;8595;52.542;11.974;2023-02-21T10:56:48;9.70;99.90
16958;DHT22;8595;52.542;11.974;2023-02-21T10:59:20;9.80;99.90
16958;DHT22;8595;52.542;11.974;2023-02-21T11:01:48;9.90;99.90
16958;DHT22;8595;52.542;11.974;2023-02-21T11:04:24;9.80;99.90
16958;DHT22;8595;52.542;11.974;2023-02-21T11:06:54;9.90;99.90
16958;DHT22;8595;52.542;11.974;2023-02-21T11:09:35;9.90;99.90
16958;DHT22;8595;52.542;11.974;2023-02-21T11:12:18;10.00;99.90
16958;DHT22;8595;52.542;11.974;2023-02-21T11:15:14;10.00;99.90
16958;DHT22;8595;52.542;11.974;2023-02-21T11:17:42;10.00;99.90
16958;DHT22;8595;52.542;11.974;2023-02-21T11:20:17;10.00;99.90
16958;DHT22;8595;52.542;11.974;2023-02-21T11:22:46;10.20;99.90
16958;DHT22;8595;52.542;11.974;2023-02-21T11:25:21;10.20;99.90
16958;DHT22;8595;52.542;11.974;2023-02-21T11:28:02;10.30;99.90
16958;DHT22;8595;52.542;11.974;2023-02-21T11:30:32;10.40;99.90
16958;DHT22;8595;52.542;11.974;2023-02-21T11:33:00;10.50;99.90
16958;DHT22;8595;52.542;11.974;2023-02-21T11:35:32;10.50;99.90
16958;DHT22;8595;52.542;11.974;2023-02-21T11:38:02;10.50;99.90
16958;DHT22;8595;52.542;11.974;2023-02-21T11:40:32;10.60;99.90
16958;DHT22;8595;52.542;11.974;2023-02-21T11:43:26;10.60;99.90
16958;DHT22;8595;52.542;11.974;2023-02-21T11:46:22;10.60;99.90
16958;DHT22;8595;52.542;11.974;2023-02-21T11:48:57;10.70;99.90
16958;DHT22;8595;52.542;11.974;2023-02-21T11:51:31;10.80;99.90
16958;DHT22;8595;52.542;11.974;2023-02-21T11:54:02;10.90;99.90
16958;DHT22;8595;52.542;11.974;2023-02-21T11:56:40;11.00;99.90
16958;DHT22;8595;52.542;11.974;2023-02-21T11:59:28;11.00;99.90
16958;DHT22;8595;52.542;11.974;2023-02-21T12:05:01;11.10;99.90
16958;DHT22;8595;52.542;11.974;2023-02-21T12:07:36;11.00;99.90
16958;DHT22;8595;52.542;11.974;2023-02-21T12:10:18;11.10;99.90
16958;DHT22;8595;52.542;11.974;2023-02-21T12:12:51;11.30;99.90
16958;DHT22;8595;52.542;11.974;2023-02-21T12:15:25;11.20;99.90
16958;DHT22;8595;52.542;11.974;2023-02-21T12:18:16;11.20;99.90
16958;DHT22;8595;52.542;11.974;2023-02-21T12:21:15;11.10;99.90
16958;DHT22;8595;52.542;11.974;2023-02-21T12:23:51;11.30;99.90
16958;DHT22;8595;52.542;11.974;2023-02-21T12:26:47;11.40;99.90
16958;DHT22;8595;52.542;11.974;2023-02-21T12:29:30;11.10;99.90
16958;DHT22;8595;52.542;11.974;2023-02-21T12:32:15;11.10;99.90
16958;DHT22;8595;52.542;11.974;2023-02-21T12:34:59;11.00;99.90
16958;DHT22;8595;52.542;11.974;2023-02-21T12:37:33;11.10;99.90
16958;DHT22;8595;52.542;11.974;2023-02-21T12:40:18;10.90;99.90
16958;DHT22;8595;52.542;11.974;2023-02-21T12:46:00;11.00;99.90
16958;DHT22;8595;52.542;11.974;2023-02-21T12:48:36;11.00;99.90
16958;DHT22;8595;52.542;11.974;2023-02-21T12:51:07;11.10;99.90
16958;DHT22;8595;52.542;11.974;2023-02-21T12:53:42;11.10;99.90
16958;DHT22;8595;52.542;11.974;2023-02-21T12:56:12;11.20;99.90
16958;DHT22;8595;52.542;11.974;2023-02-21T12:58:43;11.30;99.90
16958;DHT22;8595;52.542;11.974;2023-02-21T13:01:15;11.30;99.90
16958;DHT22;8595;52.542;11.974;2023-02-21T13:03:52;11.20;99.90
16958;DHT22;8595;52.542;11.974;2023-02-21T13:06:26;11.20;99.90
16958;DHT22;8595;52.542;11.974;2023-02-21T13:09:06;11.20;99.90
16958;DHT22;8595;52.542;11.974;2023-02-21T13:11:39;11.20;99.90
16958;DHT22;8595;52.542;11.974;2023-02-21T13:14:09;11.20;99.90
16958;DHT22;8595;52.542;11.974;2023-02-21T13:16:37;11.10;99.90
16958;DHT22;8595;52.542;11.974;2023-02-21T13:19:08;11.10;99.90
16958;DHT22;8595;52.542;11.974;2023-02-21T13:21:48;11.20;99.90
16958;DHT22;8595;52.542;11.974;2023-02-21T13:24:39;11.20;99.90
16958;DHT22;8595;52.542;11.974;2023-02-21T13:27:45;11.30;99.90
16958;DHT22;8595;52.542;11.974;2023-02-21T13:30:18;11.20;99.90
16958;DHT22;8595;52.542;11.974;2023-02-21T13:32:55;11.10;99.90
16958;DHT22;8595;52.542;11.974;2023-02-21T13:35:32;11.10;99.90
16958;DHT22;8595;52.542;11.974;2023-02-21T13:38:12;11.00;99.90
16958;DHT22;8595;52.542;11.974;2023-02-21T13:40:47;11.00;99.90
16958;DHT22;8595;52.542;11.974;2023-02-21T13:43:20;10.90;99.90
16958;DHT22;8595;52.542;11.974;2023-02-21T13:45:49;10.90;99.90
16958;DHT22;8595;52.542;11.974;2023-02-21T13:48:27;10.90;99.90
16958;DHT22;8595;52.542;11.974;2023-02-21T13:50:57;10.80;99.90
16958;DHT22;8595;52.542;11.974;2023-02-21T13:53:26;10.70;99.90
16958;DHT22;8595;52.542;11.974;2023-02-21T13:56:39;10.60;99.90
16958;DHT22;8595;52.542;11.974;2023-02-21T13:59:32;10.60;99.90
16958;DHT22;8595;52.542;11.974;2023-02-21T14:02:16;10.40;99.90
16958;DHT22;8595;52.542;11.974;2023-02-21T14:05:02;10.50;99.90
16958;DHT22;8595;52.542;11.974;2023-02-21T14:07:45;10.50;99.90
16958;DHT22;8595;52.542;11.974;2023-02-21T14:10:24;10.50;99.90
16958;DHT22;8595;52.542;11.974;2023-02-21T14:12:57;10.50;99.90
16958;DHT22;8595;52.542;11.974;2023-02-21T14:15:36;10.40;99.90
16958;DHT22;8595;52.542;11.974;2023-02-21T14:18:04;10.60;99.90
16958;DHT22;8595;52.542;11.974;2023-02-21T14:20:34;10.50;99.90
16958;DHT22;8595;52.542;11.974;2023-02-21T14:23:03;10.50;99.90
16958;DHT22;8595;52.542;11.974;2023-02-21T14:25:33;10.40;99.90
16958;DHT22;8595;52.542;11.974;2023-02-21T14:28:01;10.40;99.90
16958;DHT22;8595;52.542;11.974;2023-02-21T14:30:50;10.40;99.90
16958;DHT22;8595;52.542;11.974;2023-02-21T14:33:27;10.40;99.90
16958;DHT22;8595;52.542;11.974;2023-02-21T14:36:00;10.40;99.90
16958;DHT22;8595;52.542;11.974;2023-02-21T14:38:31;10.50;99.90
16958;DHT22;8595;52.542;11.974;2023-02-21T14:41:29;10.50;99.90
16958;DHT22;8595;52.542;11.974;2023-02-21T14:44:18;10.40;99.90
16958;DHT22;8595;52.542;11.974;2023-02-21T14:47:03;10.40;99.90
16958;DHT22;8595;52.542;11.974;2023-02-21T14:49:54;10.40;99.90
16958;DHT22;8595;52.542;11.974;2023-02-21T14:55:33;10.40;99.90
16958;DHT22;8595;52.542;11.974;2023-02-21T14:58:39;10.40;99.90
16958;DHT22;8595;52.542;11.974;2023-02-21T15:01:15;10.40;99.90
16958;DHT22;8595;52.542;11.974;2023-02-21T15:03:59;10.40;99.90
16958;DHT22;8595;52.542;11.974;2023-02-21T15:06:28;10.40;99.90
16958;DHT22;8595;52.542;11.974;2023-02-21T15:08:56;10.40;99.90
16958;DHT22;8595;52.542;11.974;2023-02-21T15:11:26;10.50;99.90
16958;DHT22;8595;52.542;11.974;2023-02-21T15:14:11;10.50;99.90
16958;DHT22;8595;52.542;11.974;2023-02-21T15:16:42;10.60;99.90
16958;DHT22;8595;52.542;11.974;2023-02-21T15:19:20;10.50;99.90
16958;DHT22;8595;52.542;11.974;2023-02-21T15:21:47;10.60;99.90
16958;DHT22;8595;52.542;11.974;2023-02-21T15:24:15;10.60;99.90
16958;DHT22;8595;52.542;11.974;2023-02-21T15:26:42;10.60;99.90
16958;DHT22;8595;52.542;11.974;2023-02-21T15:29:10;10.70;99.90
16958;DHT22;8595;52.542;11.974;2023-02-21T15:31:40;10.70;99.90
16958;DHT22;8595;52.542;11.974;2023-02-21T15:34:15;10.70;99.90
16958;DHT22;8595;52.542;11.974;2023-02-21T15:36:43;10.70;99.90
16958;DHT22;8595;52.542;11.974;2023-02-21T15:39:16;10.70;99.90
16958;DHT22;8595;52.542;11.974;2023-02-21T15:41:49;10.70;99.90
16958;DHT22;8595;52.542;11.974;2023-02-21T15:44:21;10.70;99.90
16958;DHT22;8595;52.542;11.974;2023-02-21T15:46:50;10.70;99.90
16958;DHT22;8595;52.542;11.974;2023-02-21T15:49:23;10.70;99.90
16958;DHT22;8595;52.542;11.974;2023-02-21T15:51:52;10.70;99.90
16958;DHT22;8595;52.542;11.974;2023-02-21T15:54:29;10.60;99.90
16958;DHT22;8595;52.542;11.974;2023-02-21T15:57:17;10.60;99.90
16958;DHT22;8595;52.542;11.974;2023-02-21T15:59:45;10.60;99.90
16958;DHT22;8595;52.542;11.974;2023-02-21T16:02:38;10.60;99.90
16958;DHT22;8595;52.542;11.974;2023-02-21T16:05:26;10.60;99.90
16958;DHT22;8595;52.542;11.974;2023-02-21T16:07:59;10.70;99.90
16958;DHT22;8595;52.542;11.974;2023-02-21T16:10:29;10.60;99.90
16958;DHT22;8595;52.542;11.974;2023-02-21T16:13:00;10.60;99.90
16958;DHT22;8595;52.542;11.974;2023-02-21T16:15:28;10.60;99.90
16958;DHT22;8595;52.542;11.974;2023-02-21T16:17:57;10.60;99.90
16958;DHT22;8595;52.542;11.974;2023-02-21T16:20:28;10.50;99.90
16958;DHT22;8595;52.542;11.974;2023-02-21T16:23:22;10.60;99.90
16958;DHT22;8595;52.542;11.974;2023-02-21T16:25:58;10.60;99.90
16958;DHT22;8595;52.542;11.974;2023-02-21T16:28:26;10.60;99.90
16958;DHT22;8595;52.542;11.974;2023-02-21T16:30:53;10.60;99.90
16958;DHT22;8595;52.542;11.974;2023-02-21T16:33:23;10.60;99.90
16958;DHT22;8595;52.542;11.974;2023-02-21T16:35:51;10.50;99.90